Time;durP1;ratioP1;P1;durP2;ratioP2;P2;SDS_P1;SDS_P2;PMS_P1;PMS_P2;Temp;Humidity;BMP_temperature;BMP_pressure;BME280_temperature;BME280_humidity;BME280_pressure;Samples;Min_cycle;Max_cycle;Signal;HPM_P1;HPM_P2
2022/02/20 00:01:13;;;;;;;;;;;;;;;2.64;100.00;100389.34;10476158;28;19959;-71
2022/02/20 00:06:14;;;;;;;;;;;;;;;2.62;100.00;100393.91;10458149;28;20538;-71
2022/02/20 00:11:14;;;;;;;;;;;;;;;2.61;100.00;100394.03;10468057;28;20414;-71
2022/02/20 00:16:14;;;;;;;;;;;;;;;2.61;100.00;100394.03;10450839;22;19920;-67
2022/02/20 00:21:15;;;;;;;;;;;;;;;2.59;100.00;100402.03;10419305;28;19975;-67
2022/02/20 00:26:15;;;;;;;;;;;;;;;2.57;100.00;100401.31;10434029;28;19912;-67
2022/02/20 00:31:15;;;;;;;;;;;;;;;2.56;100.00;100407.53;10437636;28;19971;-67
2022/02/20 00:36:16;;;;;;;;;;;;;;;2.54;100.00;100412.06;10426340;28;19916;-67
2022/02/20 00:41:16;;;;;;;;;;;;;;;2.54;100.00;100408.59;10410340;28;19999;-67
2022/02/20 00:46:16;;;;;;;;;;;;;;;2.52;100.00;100400.81;10433265;28;19908;-67
2022/02/20 00:51:16;;;;;;;;;;;;;;;2.52;100.00;100410.50;10420131;28;19913;-67
2022/02/20 00:56:16;;;;;;;;;;;;;;;2.49;100.00;100395.81;10430405;28;19915;-67
2022/02/20 01:01:17;;;;;;;;;;;;;;;2.47;100.00;100402.97;10426843;28;19916;-67
2022/02/20 01:06:17;;;;;;;;;;;;;;;2.48;100.00;100404.66;10427533;28;20293;-67
2022/02/20 01:11:17;;;;;;;;;;;;;;;2.45;100.00;100413.59;10435733;28;19913;-67
2022/02/20 01:16:18;;;;;;;;;;;;;;;2.45;100.00;100416.25;10437733;28;19920;-67
2022/02/20 01:21:18;;;;;;;;;;;;;;;2.43;100.00;100420.75;10418152;28;20383;-67
2022/02/20 01:26:18;;;;;;;;;;;;;;;2.40;100.00;100428.06;10424609;28;19917;-67
2022/02/20 01:31:19;;;;;;;;;;;;;;;2.37;100.00;100430.91;10432799;28;19921;-67
2022/02/20 01:36:19;;;;;;;;;;;;;;;2.36;100.00;100445.84;10430135;28;20347;-67
2022/02/20 01:41:19;;;;;;;;;;;;;;;2.34;100.00;100431.97;10429738;28;20015;-67
2022/02/20 01:46:20;;;;;;;;;;;;;;;2.33;100.00;100432.09;10429268;28;20350;-67
2022/02/20 01:51:20;;;;;;;;;;;;;;;2.33;100.00;100435.56;10440323;28;20108;-67
2022/02/20 01:56:20;;;;;;;;;;;;;;;2.36;100.00;100442.41;10431781;28;19932;-67
2022/02/20 02:01:20;;;;;;;;;;;;;;;2.37;100.00;100441.44;10422210;28;19913;-67
2022/02/20 02:06:21;;;;;;;;;;;;;;;2.34;100.00;100445.13;10431415;28;19919;-67
2022/02/20 02:11:21;;;;;;;;;;;;;;;2.35;100.00;100448.59;10429134;28;19920;-68
2022/02/20 02:16:21;;;;;;;;;;;;;;;2.37;100.00;100444.06;10437677;28;19919;-67
2022/02/20 02:21:22;;;;;;;;;;;;;;;2.37;100.00;100444.06;10434319;28;19909;-67
2022/02/20 02:26:23;;;;;;;;;;;;;;;2.34;100.00;100447.75;10436659;28;19908;-67
2022/02/20 02:31:23;;;;;;;;;;;;;;;2.30;100.00;100450.72;10443135;28;19933;-67
2022/02/20 02:36:24;;;;;;;;;;;;;;;2.30;100.00;100472.59;10433940;28;20378;-67
2022/02/20 02:41:24;;;;;;;;;;;;;;;2.33;100.00;100479.41;10432736;28;19915;-67
2022/02/20 02:46:24;;;;;;;;;;;;;;;2.33;100.00;100482.03;10435679;28;19952;-67
2022/02/20 02:51:26;;;;;;;;;;;;;;;2.33;100.00;100474.13;10419329;28;19920;-67
2022/02/20 02:56:26;;;;;;;;;;;;;;;2.30;100.00;100485.75;10435808;28;20359;-67
2022/02/20 03:01:26;;;;;;;;;;;;;;;2.27;100.00;100496.50;10408994;28;19943;-67
2022/02/20 03:06:26;;;;;;;;;;;;;;;2.28;100.00;100502.56;10431142;28;19909;-67
2022/02/20 03:11:27;;;;;;;;;;;;;;;2.29;100.00;100518.22;10434637;28;19959;-67
2022/02/20 03:16:27;;;;;;;;;;;;;;;2.30;100.00;100519.03;10427462;28;19913;-67
2022/02/20 03:21:27;;;;;;;;;;;;;;;2.33;100.00;100543.34;10433289;28;19909;-67
2022/02/20 03:26:27;;;;;;;;;;;;;;;2.35;100.00;100548.47;10432374;28;19978;-67
2022/02/20 03:31:28;;;;;;;;;;;;;;;2.36;100.00;100558.88;10433722;28;19925;-67
2022/02/20 03:36:31;;;;;;;;;;;;;;;2.37;100.00;100563.19;10425763;28;19909;-67
2022/02/20 03:41:31;;;;;;;;;;;;;;;2.37;100.00;100571.06;10424298;28;19915;-67
2022/02/20 03:46:31;;;;;;;;;;;;;;;2.39;100.00;100576.22;10427549;28;20355;-67
2022/02/20 03:51:32;;;;;;;;;;;;;;;2.35;100.00;100593.16;10430361;28;19917;-67
2022/02/20 03:56:32;;;;;;;;;;;;;;;2.36;100.00;100610.63;10414133;28;19915;-67
2022/02/20 04:01:32;;;;;;;;;;;;;;;2.36;100.00;100618.50;10430038;28;19931;-67
2022/02/20 04:06:32;;;;;;;;;;;;;;;2.37;100.00;100617.53;10423160;28;19909;-67
2022/02/20 04:11:32;;;;;;;;;;;;;;;2.39;100.00;100636.69;10422779;28;19912;-67
2022/02/20 04:16:33;;;;;;;;;;;;;;;2.40;100.00;100647.06;10423735;28;19936;-67
2022/02/20 04:21:33;;;;;;;;;;;;;;;2.41;100.00;100651.38;10425642;28;20007;-67
2022/02/20 04:26:33;;;;;;;;;;;;;;;2.41;100.00;100640.00;10433802;28;19908;-67
2022/02/20 04:31:36;;;;;;;;;;;;;;;2.31;100.00;100647.75;10431717;28;19913;-67
2022/02/20 04:36:36;;;;;;;;;;;;;;;2.20;100.00;100632.72;10428668;28;19908;-67
2022/02/20 04:41:36;;;;;;;;;;;;;;;2.12;100.00;100627.19;10435303;28;19909;-67
2022/02/20 04:46:37;;;;;;;;;;;;;;;2.08;100.00;100630.16;10428186;28;20348;-67
2022/02/20 04:51:37;;;;;;;;;;;;;;;2.11;100.00;100637.81;10423341;28;19959;-67
2022/02/20 04:56:37;;;;;;;;;;;;;;;2.17;100.00;100637.38;10438991;28;19943;-67
2022/02/20 05:01:38;;;;;;;;;;;;;;;2.20;100.00;100637.16;10432638;28;20003;-68
2022/02/20 05:06:39;;;;;;;;;;;;;;;2.18;100.00;100624.13;10416038;28;20291;-67
2022/02/20 05:11:39;;;;;;;;;;;;;;;2.16;100.00;100628.66;10422906;28;20012;-67
2022/02/20 05:16:39;;;;;;;;;;;;;;;2.15;100.00;100634.00;10417122;28;20074;-67
2022/02/20 05:21:39;;;;;;;;;;;;;;;2.13;100.00;100620.16;10436362;28;19954;-67
2022/02/20 05:26:39;;;;;;;;;;;;;;;2.14;100.00;100616.56;10417981;28;19909;-67
2022/02/20 05:31:40;;;;;;;;;;;;;;;2.13;100.00;100618.38;10425619;28;19913;-67
2022/02/20 05:36:40;;;;;;;;;;;;;;;2.16;100.00;100614.69;10419212;28;19917;-67
2022/02/20 05:41:40;;;;;;;;;;;;;;;2.21;100.00;100609.91;10425323;28;20307;-67
2022/02/20 05:46:40;;;;;;;;;;;;;;;2.20;100.00;100608.25;10427478;28;20330;-67
2022/02/20 05:51:41;;;;;;;;;;;;;;;2.17;100.00;100611.09;10424711;28;19921;-66
2022/02/20 05:56:41;;;;;;;;;;;;;;;2.16;100.00;100605.00;10409665;28;20075;-66
2022/02/20 06:01:41;;;;;;;;;;;;;;;2.16;100.00;100601.53;10419758;28;19917;-67
2022/02/20 06:06:41;;;;;;;;;;;;;;;2.14;100.00;100599.00;10427148;28;19963;-67
2022/02/20 06:11:41;;;;;;;;;;;;;;;2.12;100.00;100602.69;10432056;28;20020;-67
2022/02/20 06:16:41;;;;;;;;;;;;;;;2.12;100.00;100600.91;10426094;22;20294;-70
2022/02/20 06:21:42;;;;;;;;;;;;;;;2.12;100.00;100614.03;10413602;28;19920;-71
2022/02/20 06:26:42;;;;;;;;;;;;;;;2.10;100.00;100600.19;10406626;28;20379;-70
2022/02/20 06:31:42;;;;;;;;;;;;;;;2.10;100.00;100597.56;10396542;28;19913;-71
2022/02/20 06:36:43;;;;;;;;;;;;;;;2.11;100.00;100588.72;10393037;28;20279;-70
2022/02/20 06:41:43;;;;;;;;;;;;;;;2.12;100.00;100586.94;10395500;28;19932;-70
2022/02/20 06:46:43;;;;;;;;;;;;;;;2.12;100.00;100590.38;10389364;28;20328;-70
2022/02/20 06:51:43;;;;;;;;;;;;;;;2.13;100.00;100591.25;10402118;28;19913;-70
2022/02/20 06:56:44;;;;;;;;;;;;;;;2.17;100.00;100590.91;10407837;28;19909;-70
2022/02/20 07:01:44;;;;;;;;;;;;;;;2.23;100.00;100585.19;10391446;28;19960;-70
2022/02/20 07:06:44;;;;;;;;;;;;;;;2.27;100.00;100577.97;10381674;28;19917;-70
2022/02/20 07:11:45;;;;;;;;;;;;;;;2.31;100.00;100568.06;10394737;28;19917;-70
2022/02/20 07:16:45;;;;;;;;;;;;;;;2.34;100.00;100567.81;10394892;28;19912;-69
2022/02/20 07:21:45;;;;;;;;;;;;;;;2.36;100.00;100561.50;10401673;28;19916;-69
2022/02/20 07:26:47;;;;;;;;;;;;;;;2.38;100.00;100561.38;10394969;28;19909;-70
2022/02/20 07:31:47;;;;;;;;;;;;;;;2.42;100.00;100562.84;10389940;28;19924;-70
2022/02/20 07:36:47;;;;;;;;;;;;;;;2.44;100.00;100555.66;10381194;28;19909;-70
2022/02/20 07:41:48;;;;;;;;;;;;;;;2.47;100.00;100563.31;10402214;28;19909;-71
2022/02/20 07:46:48;;;;;;;;;;;;;;;2.48;100.00;100550.09;10392502;28;19931;-70
2022/02/20 07:51:48;;;;;;;;;;;;;;;2.49;100.00;100549.13;10398186;28;19918;-70
2022/02/20 07:56:49;;;;;;;;;;;;;;;2.51;100.00;100540.31;10389432;28;20359;-70
2022/02/20 08:01:49;;;;;;;;;;;;;;;2.50;100.00;100539.44;10386298;28;19909;-70
2022/02/20 08:06:51;;;;;;;;;;;;;;;2.51;100.00;100535.03;10376685;28;19913;-70
2022/02/20 08:11:52;;;;;;;;;;;;;;;2.52;100.00;100518.31;10387548;28;19980;-70
2022/02/20 08:16:52;;;;;;;;;;;;;;;2.53;100.00;100518.19;10390067;28;19955;-70
2022/02/20 08:21:52;;;;;;;;;;;;;;;2.54;100.00;100496.19;10403540;28;19909;-70
2022/02/20 08:26:53;;;;;;;;;;;;;;;2.56;100.00;100494.31;10377843;28;20364;-70
2022/02/20 08:31:53;;;;;;;;;;;;;;;2.54;100.00;100480.44;10381384;28;19914;-71
2022/02/20 08:36:53;;;;;;;;;;;;;;;2.50;100.00;100460.56;10384695;28;20360;-70
2022/02/20 08:41:53;;;;;;;;;;;;;;;2.47;100.00;100453.78;10409978;28;19909;-70
2022/02/20 08:46:54;;;;;;;;;;;;;;;2.45;100.00;100436.44;10409664;28;19916;-70
2022/02/20 08:51:54;;;;;;;;;;;;;;;2.45;100.00;100423.28;10396423;28;20410;-69
2022/02/20 08:56:54;;;;;;;;;;;;;;;2.45;100.00;100400.47;10388233;28;20389;-70
2022/02/20 09:01:56;;;;;;;;;;;;;;;2.44;100.00;100390.06;10396214;28;20288;-70
2022/02/20 09:06:56;;;;;;;;;;;;;;;2.44;100.00;100371.66;10380668;28;20288;-71
2022/02/20 09:11:57;;;;;;;;;;;;;;;2.40;100.00;100355.28;10395170;28;19920;-70
2022/02/20 09:16:57;;;;;;;;;;;;;;;2.43;100.00;100346.31;10387900;28;19913;-70
2022/02/20 09:21:57;;;;;;;;;;;;;;;2.41;100.00;100335.91;10404529;28;19909;-70
2022/02/20 09:26:57;;;;;;;;;;;;;;;2.38;100.00;100303.78;10407694;28;19909;-70
2022/02/20 09:31:58;;;;;;;;;;;;;;;2.37;100.00;100289.81;10391862;28;19917;-69
2022/02/20 09:36:58;;;;;;;;;;;;;;;2.35;100.00;100277.75;10376434;28;19984;-70
2022/02/20 09:41:58;;;;;;;;;;;;;;;2.29;100.00;100272.97;10395642;28;20075;-69
2022/02/20 09:46:59;;;;;;;;;;;;;;;2.27;100.00;100254.72;10415239;28;19996;-69
2022/02/20 09:51:59;;;;;;;;;;;;;;;2.22;100.00;100233.19;10415240;28;19917;-69
2022/02/20 09:56:59;;;;;;;;;;;;;;;2.14;100.00;100223.28;10380736;28;19979;-70
2022/02/20 10:02:04;;;;;;;;;;;;;;;2.11;100.00;100210.38;10399706;28;19917;-69
2022/02/20 10:07:04;;;;;;;;;;;;;;;2.12;100.00;100171.81;10409787;28;19951;-69
2022/02/20 10:12:20;;;;;;;;;;;;;;;2.14;100.00;100175.97;10414574;28;20368;-69
2022/02/20 10:17:22;;;;;;;;;;;;;;;2.15;100.00;100164.53;10415446;28;19921;-70
2022/02/20 10:22:28;;;;;;;;;;;;;;;2.24;100.00;100148.03;10415869;28;19909;-69
2022/02/20 10:27:29;;;;;;;;;;;;;;;2.25;100.00;100122.59;10415335;28;19962;-70
2022/02/20 10:32:32;;;;;;;;;;;;;;;2.23;100.00;100120.06;10406766;28;20011;-69
2022/02/20 10:37:32;;;;;;;;;;;;;;;2.26;100.00;100088.28;10397182;28;19955;-70
2022/02/20 10:42:36;;;;;;;;;;;;;;;2.34;100.00;100074.53;10414979;28;19962;-70
2022/02/20 10:47:40;;;;;;;;;;;;;;;2.41;100.00;100046.78;10413914;28;19913;-70
2022/02/20 10:52:41;;;;;;;;;;;;;;;2.51;100.00;100052.13;10414024;28;19963;-70
2022/02/20 10:57:42;;;;;;;;;;;;;;;2.66;100.00;100037.72;10414188;28;20426;-70
2022/02/20 11:02:43;;;;;;;;;;;;;;;2.85;100.00;100017.75;10413646;28;20359;-70
2022/02/20 11:07:43;;;;;;;;;;;;;;;2.99;100.00;99991.13;10414044;28;19952;-70
2022/02/20 11:12:43;;;;;;;;;;;;;;;3.14;100.00;99986.34;10413902;28;19921;-70
2022/02/20 11:17:43;;;;;;;;;;;;;;;3.32;100.00;99965.50;10414046;28;19916;-70
2022/02/20 11:22:48;;;;;;;;;;;;;;;3.59;100.00;99951.72;10414002;28;19951;-70
2022/02/20 11:27:49;;;;;;;;;;;;;;;3.74;100.00;99946.88;10412747;28;20342;-69
2022/02/20 11:32:50;;;;;;;;;;;;;;;3.86;100.00;99925.53;10377016;28;19913;-70
2022/02/20 11:37:52;;;;;;;;;;;;;;;4.01;100.00;99902.25;10371385;28;20058;-69
2022/02/20 11:42:58;;;;;;;;;;;;;;;4.24;100.00;99886.97;10371482;28;20355;-69
2022/02/20 11:48:02;;;;;;;;;;;;;;;4.46;100.00;99877.91;10370991;28;19916;-70
2022/02/20 11:53:04;;;;;;;;;;;;;;;4.64;100.00;99858.69;10370747;28;19913;-69
2022/02/20 11:58:10;;;;;;;;;;;;;;;4.83;100.00;99839.31;10357690;28;19913;-69
2022/02/20 12:03:17;;;;;;;;;;;;;;;5.03;100.00;99855.88;10402087;28;19967;-70
2022/02/20 12:08:31;;;;;;;;;;;;;;;5.21;100.00;99844.38;10411381;28;19916;-70
2022/02/20 12:13:31;;;;;;;;;;;;;;;5.40;100.00;99832.03;10410873;28;19917;-69
2022/02/20 12:18:33;;;;;;;;;;;;;;;5.58;100.00;99822.28;10454274;22;19920;-71
2022/02/20 12:23:34;;;;;;;;;;;;;;;5.76;100.00;99811.72;10452827;28;19912;-71
2022/02/20 12:28:38;;;;;;;;;;;;;;;5.98;100.00;99802.50;10452211;28;19930;-71
2022/02/20 12:33:44;;;;;;;;;;;;;;;6.13;100.00;99793.00;10451867;28;19913;-71
2022/02/20 12:38:48;;;;;;;;;;;;;;;6.27;100.00;99777.56;10452048;28;20003;-71
2022/02/20 12:43:49;;;;;;;;;;;;;;;6.41;100.00;99766.41;10451341;28;20283;-71
2022/02/20 12:48:50;;;;;;;;;;;;;;;6.56;100.00;99767.44;10444335;28;20039;-70
2022/02/20 12:53:50;;;;;;;;;;;;;;;6.66;100.00;99756.75;10433347;28;19913;-70
2022/02/20 12:58:51;;;;;;;;;;;;;;;6.78;100.00;99747.53;10451181;28;19913;-70
2022/02/20 13:03:53;;;;;;;;;;;;;;;6.90;100.00;99736.63;10450870;28;20005;-70
2022/02/20 13:08:57;;;;;;;;;;;;;;;7.02;100.00;99724.75;10451147;28;20003;-70
2022/02/20 13:14:10;;;;;;;;;;;;;;;7.18;100.00;99714.16;10449546;28;19912;-70
2022/02/20 13:19:10;;;;;;;;;;;;;;;7.31;100.00;99715.50;10456621;28;19913;-71
2022/02/20 13:24:10;;;;;;;;;;;;;;;7.40;100.00;99701.25;10459234;28;20338;-70
2022/02/20 13:29:11;;;;;;;;;;;;;;;7.45;100.00;99691.81;10459113;28;19948;-71
2022/02/20 13:34:15;;;;;;;;;;;;;;;7.57;100.00;99692.31;10459130;28;19916;-70
2022/02/20 13:39:16;;;;;;;;;;;;;;;7.67;100.00;99681.53;10440692;28;19908;-71
2022/02/20 13:44:28;;;;;;;;;;;;;;;7.77;100.00;99671.56;10453843;28;20351;-71
2022/02/20 13:49:29;;;;;;;;;;;;;;;7.88;100.00;99654.47;10491150;28;19954;-71
2022/02/20 13:54:36;;;;;;;;;;;;;;;7.99;100.00;99647.97;10498721;28;20413;-71
2022/02/20 13:59:36;;;;;;;;;;;;;;;8.03;100.00;99628.91;10481413;28;20019;-70
2022/02/20 14:04:47;;;;;;;;;;;;;;;8.05;100.00;99626.06;10498673;28;19991;-71
2022/02/20 14:09:48;;;;;;;;;;;;;;;8.10;100.00;99631.69;10480867;28;19913;-71
2022/02/20 14:15:07;;;;;;;;;;;;;;;8.11;100.00;99622.72;10483482;28;19944;-71
2022/02/20 14:20:11;;;;;;;;;;;;;;;8.12;100.00;99611.13;10439168;28;19909;-71
2022/02/20 14:25:14;;;;;;;;;;;;;;;8.15;100.00;99594.88;10456407;28;19978;-71
2022/02/20 14:30:26;;;;;;;;;;;;;;;8.18;100.00;99593.72;10456058;28;20015;-71
2022/02/20 14:35:26;;;;;;;;;;;;;;;8.20;100.00;99576.59;10456189;28;19908;-70
2022/02/20 14:40:27;;;;;;;;;;;;;;;8.24;100.00;99582.41;10456295;28;20371;-70
2022/02/20 14:45:29;;;;;;;;;;;;;;;8.24;100.00;99575.25;10449909;28;19915;-71
2022/02/20 14:50:30;;;;;;;;;;;;;;;8.28;100.00;99563.28;10437936;28;20025;-71
2022/02/20 14:55:31;;;;;;;;;;;;;;;8.29;100.00;99569.41;10455487;28;19908;-71
2022/02/20 15:00:35;;;;;;;;;;;;;;;8.28;100.00;99554.50;10455402;28;20291;-70
2022/02/20 15:05:36;;;;;;;;;;;;;;;8.28;100.00;99554.50;10437141;28;19909;-71
2022/02/20 15:10:36;;;;;;;;;;;;;;;8.29;100.00;99542.88;10455192;28;19920;-71
2022/02/20 15:15:37;;;;;;;;;;;;;;;8.28;100.00;99546.53;10448281;28;19912;-71
2022/02/20 15:20:37;;;;;;;;;;;;;;;8.24;100.00;99553.22;10436983;28;19908;-70
2022/02/20 15:25:37;;;;;;;;;;;;;;;8.22;100.00;99542.75;10436141;28;20402;-71
2022/02/20 15:30:37;;;;;;;;;;;;;;;8.20;100.00;99533.31;10454394;28;19919;-71
2022/02/20 15:35:37;;;;;;;;;;;;;;;8.19;100.00;99526.38;10453760;28;19916;-71
2022/02/20 15:40:38;;;;;;;;;;;;;;;8.18;100.00;99514.94;10453680;28;19995;-71
2022/02/20 15:45:38;;;;;;;;;;;;;;;8.16;100.00;99506.34;10447336;28;19909;-71
2022/02/20 15:50:38;;;;;;;;;;;;;;;8.15;100.00;99494.91;10453479;28;19912;-71
2022/02/20 15:55:43;;;;;;;;;;;;;;;8.18;100.00;99495.56;10453070;28;20559;-71
2022/02/20 16:00:43;;;;;;;;;;;;;;;8.16;100.00;99491.25;10453141;28;19908;-71
2022/02/20 16:05:43;;;;;;;;;;;;;;;8.16;100.00;99471.84;10452847;28;19915;-71
2022/02/20 16:10:44;;;;;;;;;;;;;;;8.14;100.00;99473.84;10453200;28;19966;-71
2022/02/20 16:15:44;;;;;;;;;;;;;;;8.12;100.00;99466.09;10451868;28;19913;-70
2022/02/20 16:20:44;;;;;;;;;;;;;;;8.13;100.00;99443.03;10434480;28;19916;-70
2022/02/20 16:25:44;;;;;;;;;;;;;;;8.14;100.00;99428.75;10452168;28;20298;-71
2022/02/20 16:30:45;;;;;;;;;;;;;;;8.16;100.00;99410.84;10451878;28;19935;-71
2022/02/20 16:35:45;;;;;;;;;;;;;;;8.20;100.00;99400.69;10451652;28;19908;-71
2022/02/20 16:40:46;;;;;;;;;;;;;;;8.22;100.00;99401.34;10452148;28;19920;-72
2022/02/20 16:45:46;;;;;;;;;;;;;;;8.23;100.00;99373.81;10445252;28;20344;-70
2022/02/20 16:50:46;;;;;;;;;;;;;;;8.23;100.00;99366.72;10450756;28;20360;-70
2022/02/20 16:55:47;;;;;;;;;;;;;;;8.23;100.00;99369.38;10450825;28;19988;-70
2022/02/20 17:00:48;;;;;;;;;;;;;;;8.23;100.00;99342.00;10451462;28;20264;-70
2022/02/20 17:05:48;;;;;;;;;;;;;;;8.21;100.00;99338.72;10450732;28;19913;-70
2022/02/20 17:10:48;;;;;;;;;;;;;;;8.20;100.00;99345.81;10451500;28;19912;-71
2022/02/20 17:15:51;;;;;;;;;;;;;;;8.20;100.00;99329.91;10426319;28;20257;-70
2022/02/20 17:20:52;;;;;;;;;;;;;;;8.20;100.00;99315.81;10432826;28;19915;-71
2022/02/20 17:25:52;;;;;;;;;;;;;;;8.17;100.00;99301.09;10450534;28;19908;-70
2022/02/20 17:30:52;;;;;;;;;;;;;;;8.15;100.00;99284.56;10450661;28;19913;-70
2022/02/20 17:35:52;;;;;;;;;;;;;;;8.16;100.00;99297.63;10450389;28;20214;-71
2022/02/20 17:40:52;;;;;;;;;;;;;;;8.18;100.00;99272.75;10432834;28;19915;-70
2022/02/20 17:45:53;;;;;;;;;;;;;;;8.21;100.00;99270.56;10444660;28;19915;-71
2022/02/20 17:50:53;;;;;;;;;;;;;;;8.21;100.00;99246.69;10450347;28;19919;-71
2022/02/20 17:55:53;;;;;;;;;;;;;;;8.21;100.00;99228.13;10449980;28;19962;-71
2022/02/20 18:00:53;;;;;;;;;;;;;;;8.22;100.00;99216.50;10452279;28;19951;-71
2022/02/20 18:05:54;;;;;;;;;;;;;;;8.20;100.00;99199.13;10457223;28;19909;-71
2022/02/20 18:10:54;;;;;;;;;;;;;;;8.22;100.00;99166.09;10457698;28;19913;-71
2022/02/20 18:15:54;;;;;;;;;;;;;;;8.25;100.00;99172.88;10457481;22;20055;-73
2022/02/20 18:20:55;;;;;;;;;;;;;;;8.24;100.00;99150.84;10415359;28;20409;-73
2022/02/20 18:25:55;;;;;;;;;;;;;;;8.24;100.00;99148.19;10415403;28;20046;-73
2022/02/20 18:30:55;;;;;;;;;;;;;;;8.28;100.00;99138.03;10415320;28;20372;-73
2022/02/20 18:35:55;;;;;;;;;;;;;;;8.29;100.00;99129.03;10414624;28;20003;-73
2022/02/20 18:40:55;;;;;;;;;;;;;;;8.33;100.00;99109.13;10414912;28;19971;-73
2022/02/20 18:45:56;;;;;;;;;;;;;;;8.33;100.00;99082.59;10425805;28;19944;-74
2022/02/20 18:50:58;;;;;;;;;;;;;;;8.31;100.00;99074.81;10455635;28;19967;-73
2022/02/20 18:55:58;;;;;;;;;;;;;;;8.30;100.00;99057.25;10455560;28;20386;-73
2022/02/20 19:00:58;;;;;;;;;;;;;;;8.32;100.00;99041.13;10455654;28;19908;-73
2022/02/20 19:05:58;;;;;;;;;;;;;;;8.31;100.00;99032.34;10454869;28;19909;-73
2022/02/20 19:10:59;;;;;;;;;;;;;;;8.32;100.00;99012.78;10454868;28;20012;-73
2022/02/20 19:16:00;;;;;;;;;;;;;;;8.32;100.00;98996.88;10445160;28;19964;-73
2022/02/20 19:21:00;;;;;;;;;;;;;;;8.33;100.00;98955.25;10454079;28;19915;-73
2022/02/20 19:26:02;;;;;;;;;;;;;;;8.30;100.00;98961.75;10453942;28;19911;-72
2022/02/20 19:31:02;;;;;;;;;;;;;;;8.30;100.00;98929.09;10452985;28;19923;-72
2022/02/20 19:36:03;;;;;;;;;;;;;;;8.31;100.00;98923.59;10451029;28;20251;-73
2022/02/20 19:41:03;;;;;;;;;;;;;;;8.31;100.00;98893.59;10454009;28;20296;-73
2022/02/20 19:46:03;;;;;;;;;;;;;;;8.31;100.00;98875.84;10473977;28;19912;-72
2022/02/20 19:51:04;;;;;;;;;;;;;;;8.30;100.00;98866.25;10452145;28;19920;-72
2022/02/20 19:56:04;;;;;;;;;;;;;;;8.30;100.00;98838.91;10451804;28;19909;-72
2022/02/20 20:01:04;;;;;;;;;;;;;;;8.29;100.00;98827.50;10433773;28;19908;-72
2022/02/20 20:06:05;;;;;;;;;;;;;;;8.29;100.00;98806.28;10451226;28;19909;-72
2022/02/20 20:11:10;;;;;;;;;;;;;;;8.29;100.00;98786.88;10451468;28;19971;-73
2022/02/20 20:16:10;;;;;;;;;;;;;;;8.26;100.00;98772.19;10454572;28;20391;-72
2022/02/20 20:21:11;;;;;;;;;;;;;;;8.26;100.00;98753.63;10457200;28;19963;-72
2022/02/20 20:26:11;;;;;;;;;;;;;;;8.26;100.00;98731.56;10486502;28;19912;-72
2022/02/20 20:31:11;;;;;;;;;;;;;;;8.25;100.00;98706.06;10474247;28;20393;-72
2022/02/20 20:36:12;;;;;;;;;;;;;;;8.25;100.00;98690.97;10491452;28;20351;-72
2022/02/20 20:41:13;;;;;;;;;;;;;;;8.30;100.00;98663.84;10491720;28;19930;-73
2022/02/20 20:46:13;;;;;;;;;;;;;;;8.30;100.00;98656.72;10470861;28;20402;-72
2022/02/20 20:51:15;;;;;;;;;;;;;;;8.33;100.00;98645.72;10450087;28;19920;-72
2022/02/20 20:56:15;;;;;;;;;;;;;;;8.34;100.00;98615.50;10449750;28;19909;-72
2022/02/20 21:01:16;;;;;;;;;;;;;;;8.37;100.00;98593.06;10450975;28;19909;-72
2022/02/20 21:06:16;;;;;;;;;;;;;;;8.39;100.00;98572.50;10479649;28;19944;-72
2022/02/20 21:11:16;;;;;;;;;;;;;;;8.42;100.00;98544.75;10481650;28;19916;-73
2022/02/20 21:16:17;;;;;;;;;;;;;;;8.45;100.00;98529.25;10469402;28;19919;-73
2022/02/20 21:21:17;;;;;;;;;;;;;;;8.46;100.00;98530.06;10449903;28;19916;-72
2022/02/20 21:26:17;;;;;;;;;;;;;;;8.49;100.00;98503.94;10449078;28;19915;-72
2022/02/20 21:31:18;;;;;;;;;;;;;;;8.55;100.00;98497.00;10474010;28;19924;-73
2022/02/20 21:36:18;;;;;;;;;;;;;;;8.58;100.00;98481.53;10450911;28;19908;-73
2022/02/20 21:41:19;;;;;;;;;;;;;;;8.58;100.00;98439.06;10457583;28;19913;-73
2022/02/20 21:46:19;;;;;;;;;;;;;;;8.58;100.00;98423.16;10456004;28;20069;-73
2022/02/20 21:51:20;;;;;;;;;;;;;;;8.61;100.00;98388.25;10478397;28;19919;-73
2022/02/20 21:56:20;;;;;;;;;;;;;;;8.66;100.00;98362.91;10497453;28;20294;-73
2022/02/20 22:01:21;;;;;;;;;;;;;;;8.72;100.00;98359.44;10497359;28;19909;-73
2022/02/20 22:06:21;;;;;;;;;;;;;;;8.75;100.00;98340.44;10476786;28;19912;-74
2022/02/20 22:11:21;;;;;;;;;;;;;;;8.75;100.00;98320.00;10456472;28;19917;-74
2022/02/20 22:16:21;;;;;;;;;;;;;;;8.82;100.00;98306.72;10454236;28;19924;-73
2022/02/20 22:21:22;;;;;;;;;;;;;;;8.86;100.00;98292.00;10455640;28;19912;-74
2022/02/20 22:26:22;;;;;;;;;;;;;;;8.87;100.00;98285.66;10437068;28;19909;-74
2022/02/20 22:31:22;;;;;;;;;;;;;;;8.82;100.00;98253.66;10455105;28;20039;-73
2022/02/20 22:36:26;;;;;;;;;;;;;;;8.76;100.00;98234.06;10454652;28;20003;-73
2022/02/20 22:41:27;;;;;;;;;;;;;;;8.78;100.00;98241.81;10454765;28;19908;-74
2022/02/20 22:46:28;;;;;;;;;;;;;;;8.82;100.00;98217.28;10458386;28;20298;-73
2022/02/20 22:51:28;;;;;;;;;;;;;;;8.90;100.00;98223.38;10453609;28;19920;-73
2022/02/20 22:56:28;;;;;;;;;;;;;;;8.87;100.00;98210.53;10453887;28;20382;-74
2022/02/20 23:01:28;;;;;;;;;;;;;;;8.86;100.00;98188.47;10454110;28;19909;-73
2022/02/20 23:06:29;;;;;;;;;;;;;;;8.84;100.00;98171.94;10475086;28;19923;-69
2022/02/20 23:11:29;;;;;;;;;;;;;;;8.86;100.00;98153.97;10464744;28;20291;-73
2022/02/20 23:16:29;;;;;;;;;;;;;;;8.83;100.00;98175.63;10479871;28;19912;-70
2022/02/20 23:21:29;;;;;;;;;;;;;;;8.73;100.00;98159.38;10480007;28;19909;-70
2022/02/20 23:26:30;;;;;;;;;;;;;;;8.49;100.00;98248.44;10457440;28;19939;-70
2022/02/20 23:31:31;;;;;;;;;;;;;;;7.94;100.00;98297.25;10471139;28;20383;-73
2022/02/20 23:36:31;;;;;;;;;;;;;;;7.58;100.00;98284.38;10462488;28;19916;-73
2022/02/20 23:41:31;;;;;;;;;;;;;;;7.32;100.00;98310.81;10465694;28;20002;-73
2022/02/20 23:46:32;;;;;;;;;;;;;;;7.14;100.00;98336.00;10467102;28;19916;-73
2022/02/20 23:51:32;;;;;;;;;;;;;;;7.06;100.00;98360.00;10471920;28;20297;-73
2022/02/20 23:56:32;;;;;;;;;;;;;;;6.90;100.00;98371.75;10472022;28;19999;-70
